sensor_id;sensor_type;location;lat;lon;timestamp;pressure;altitude;pressure_sealevel;temperature;humidity
48796;BME280;34607;48.520;-1.330;2022-12-24T07:49:14;99922.41;;;11.00;100.00
48796;BME280;34607;48.520;-1.330;2022-12-24T07:51:41;99925.00;;;11.03;100.00
48796;BME280;34607;48.520;-1.330;2022-12-24T07:54:08;99928.50;;;11.05;100.00
48796;BME280;34607;48.520;-1.330;2022-12-24T07:56:35;99906.81;;;10.94;100.00
48796;BME280;34607;48.520;-1.330;2022-12-24T07:59:02;99926.78;;;11.08;100.00
48796;BME280;34607;48.520;-1.330;2022-12-24T08:01:29;99928.53;;;11.12;100.00
48796;BME280;34607;48.520;-1.330;2022-12-24T08:03:56;99926.78;;;11.09;100.00
48796;BME280;34607;48.520;-1.330;2022-12-24T08:06:25;99929.41;;;11.11;100.00
48796;BME280;34607;48.520;-1.330;2022-12-24T08:08:52;99931.16;;;11.16;100.00
48796;BME280;34607;48.520;-1.330;2022-12-24T08:11:19;99938.91;;;11.15;100.00
48796;BME280;34607;48.520;-1.330;2022-12-24T08:13:46;99935.44;;;11.13;100.00
48796;BME280;34607;48.520;-1.330;2022-12-24T08:16:14;99933.69;;;11.12;100.00
48796;BME280;34607;48.520;-1.330;2022-12-24T08:18:41;99939.75;;;11.09;100.00
48796;BME280;34607;48.520;-1.330;2022-12-24T08:21:09;99940.63;;;11.13;100.00
48796;BME280;34607;48.520;-1.330;2022-12-24T08:23:37;99938.09;;;11.17;100.00
48796;BME280;34607;48.520;-1.330;2022-12-24T08:26:06;99929.47;;;11.21;100.00
48796;BME280;34607;48.520;-1.330;2022-12-24T08:28:33;99931.19;;;11.25;100.00
48796;BME280;34607;48.520;-1.330;2022-12-24T08:31:01;99928.63;;;11.27;100.00
48796;BME280;34607;48.520;-1.330;2022-12-24T08:33:28;99931.19;;;11.25;100.00
48796;BME280;34607;48.520;-1.330;2022-12-24T08:35:57;99928.63;;;11.27;100.00
48796;BME280;34607;48.520;-1.330;2022-12-24T08:38:24;99930.38;;;11.27;100.00
48796;BME280;34607;48.520;-1.330;2022-12-24T08:40:53;99928.59;;;11.21;100.00
48796;BME280;34607;48.520;-1.330;2022-12-24T08:43:21;99939.88;;;11.28;100.00
48796;BME280;34607;48.520;-1.330;2022-12-24T08:45:50;99919.94;;;11.19;100.00
48796;BME280;34607;48.520;-1.330;2022-12-24T08:48:17;99933.88;;;11.35;100.00
48796;BME280;34607;48.520;-1.330;2022-12-24T08:50:44;99928.72;;;11.42;100.00
48796;BME280;34607;48.520;-1.330;2022-12-24T08:53:11;99934.75;;;11.38;100.00
48796;BME280;34607;48.520;-1.330;2022-12-24T08:55:38;99938.25;;;11.43;100.00
48796;BME280;34607;48.520;-1.330;2022-12-24T08:58:07;99942.56;;;11.44;100.00
48796;BME280;34607;48.520;-1.330;2022-12-24T09:00:34;99941.66;;;11.39;100.00
48796;BME280;34607;48.520;-1.330;2022-12-24T09:03:01;99947.75;;;11.48;100.00
48796;BME280;34607;48.520;-1.330;2022-12-24T09:05:28;99946.84;;;11.39;100.00
48796;BME280;34607;48.520;-1.330;2022-12-24T09:07:56;99942.56;;;11.41;100.00
48796;BME280;34607;48.520;-1.330;2022-12-24T09:10:23;99930.41;;;11.34;100.00
48796;BME280;34607;48.520;-1.330;2022-12-24T09:12:51;99952.97;;;11.49;100.00
48796;BME280;34607;48.520;-1.330;2022-12-24T09:15:19;99958.13;;;11.48;100.00
48796;BME280;34607;48.520;-1.330;2022-12-24T09:17:46;99960.72;;;11.43;100.00
48796;BME280;34607;48.520;-1.330;2022-12-24T09:20:14;99973.66;;;11.44;100.00
48796;BME280;34607;48.520;-1.330;2022-12-24T09:22:41;99972.00;;;11.53;100.00
48796;BME280;34607;48.520;-1.330;2022-12-24T09:25:08;99971.16;;;11.60;100.00
48796;BME280;34607;48.520;-1.330;2022-12-24T09:27:36;99972.03;;;11.59;100.00
48796;BME280;34607;48.520;-1.330;2022-12-24T09:30:04;99974.66;;;11.65;100.00
48796;BME280;34607;48.520;-1.330;2022-12-24T09:32:33;99965.19;;;11.66;100.00
48796;BME280;34607;48.520;-1.330;2022-12-24T09:35:00;99978.19;;;11.75;100.00
48796;BME280;34607;48.520;-1.330;2022-12-24T09:37:27;99975.63;;;11.81;100.00
48796;BME280;34607;48.520;-1.330;2022-12-24T09:39:55;99976.47;;;11.78;100.00
48796;BME280;34607;48.520;-1.330;2022-12-24T09:42:30;99970.47;;;11.83;100.00
48796;BME280;34607;48.520;-1.330;2022-12-24T09:45:06;99965.22;;;11.76;100.00
48796;BME280;34607;48.520;-1.330;2022-12-24T09:47:43;99954.88;;;11.79;100.00
48796;BME280;34607;48.520;-1.330;2022-12-24T09:50:23;99961.78;;;11.82;100.00
48796;BME280;34607;48.520;-1.330;2022-12-24T09:52:53;99947.91;;;11.69;100.00
48796;BME280;34607;48.520;-1.330;2022-12-24T09:55:26;99979.09;;;11.83;100.00
48796;BME280;34607;48.520;-1.330;2022-12-24T09:57:54;99984.34;;;11.89;100.00
48796;BME280;34607;48.520;-1.330;2022-12-24T10:00:26;99962.63;;;11.75;100.00
48796;BME280;34607;48.520;-1.330;2022-12-24T10:02:55;99988.63;;;11.90;100.00
48796;BME280;34607;48.520;-1.330;2022-12-24T10:05:33;99991.28;;;11.92;100.00
48796;BME280;34607;48.520;-1.330;2022-12-24T10:08:11;99960.03;;;11.76;100.00
48796;BME280;34607;48.520;-1.330;2022-12-24T10:10:52;99985.19;;;11.88;100.00
48796;BME280;34607;48.520;-1.330;2022-12-24T10:13:31;99984.31;;;11.88;100.00
48796;BME280;34607;48.520;-1.330;2022-12-24T10:16:11;99993.00;;;11.91;100.00
48796;BME280;34607;48.520;-1.330;2022-12-24T10:18:55;99990.44;;;11.97;100.00
48796;BME280;34607;48.520;-1.330;2022-12-24T10:21:32;99993.06;;;12.01;100.00
48796;BME280;34607;48.520;-1.330;2022-12-24T10:24:06;99998.25;;;12.04;100.00
48796;BME280;34607;48.520;-1.330;2022-12-24T10:26:43;99994.78;;;12.06;100.00
48796;BME280;34607;48.520;-1.330;2022-12-24T10:29:14;100001.72;;;12.07;100.00
48796;BME280;34607;48.520;-1.330;2022-12-24T10:31:51;99987.88;;;12.02;100.00
48796;BME280;34607;48.520;-1.330;2022-12-24T10:34:22;100000.91;;;12.10;100.00
48796;BME280;34607;48.520;-1.330;2022-12-24T10:36:50;100002.63;;;12.14;100.00
48796;BME280;34607;48.520;-1.330;2022-12-24T10:39:19;100000.03;;;12.15;100.00
48796;BME280;34607;48.520;-1.330;2022-12-24T10:41:50;99994.00;;;12.15;100.00
48796;BME280;34607;48.520;-1.330;2022-12-24T10:44:20;99997.47;;;12.17;100.00
48796;BME280;34607;48.520;-1.330;2022-12-24T10:46:48;100000.94;;;12.22;100.00
48796;BME280;34607;48.520;-1.330;2022-12-24T10:49:16;99991.41;;;12.20;100.00
48796;BME280;34607;48.520;-1.330;2022-12-24T10:51:49;99989.69;;;12.20;100.00
48796;BME280;34607;48.520;-1.330;2022-12-24T10:54:20;99971.53;;;12.20;100.00
48796;BME280;34607;48.520;-1.330;2022-12-24T10:56:50;99971.50;;;12.18;100.00
48796;BME280;34607;48.520;-1.330;2022-12-24T10:59:25;99964.56;;;12.16;100.00
48796;BME280;34607;48.520;-1.330;2022-12-24T11:01:54;99976.72;;;12.26;100.00
48796;BME280;34607;48.520;-1.330;2022-12-24T11:04:23;99974.16;;;12.34;100.00
48796;BME280;34607;48.520;-1.330;2022-12-24T11:06:55;99979.34;;;12.31;100.00
48796;BME280;34607;48.520;-1.330;2022-12-24T11:09:25;99980.19;;;12.28;100.00
48796;BME280;34607;48.520;-1.330;2022-12-24T11:11:53;99986.22;;;12.24;100.00
48796;BME280;34607;48.520;-1.330;2022-12-24T11:14:21;99974.97;;;12.28;100.00
48796;BME280;34607;48.520;-1.330;2022-12-24T11:16:51;99959.38;;;12.16;100.00
48796;BME280;34607;48.520;-1.330;2022-12-24T11:19:29;99968.94;;;12.28;100.00
48796;BME280;34607;48.520;-1.330;2022-12-24T11:22:01;99955.97;;;12.29;100.00
48796;BME280;34607;48.520;-1.330;2022-12-24T11:24:31;99954.25;;;12.39;100.00
48796;BME280;34607;48.520;-1.330;2022-12-24T11:27:22;99959.41;;;12.25;100.00
48796;BME280;34607;48.520;-1.330;2022-12-24T11:29:49;99959.41;;;12.30;100.00
48796;BME280;34607;48.520;-1.330;2022-12-24T11:32:18;99964.66;;;12.39;100.00
48796;BME280;34607;48.520;-1.330;2022-12-24T11:34:46;99969.00;;;12.46;100.00
48796;BME280;34607;48.520;-1.330;2022-12-24T11:37:18;99944.72;;;12.38;100.00
48796;BME280;34607;48.520;-1.330;2022-12-24T11:39:50;99947.28;;;12.32;100.00
48796;BME280;34607;48.520;-1.330;2022-12-24T11:42:27;99966.34;;;12.39;100.00
48796;BME280;34607;48.520;-1.330;2022-12-24T11:44:56;99962.91;;;12.36;100.00
48796;BME280;34607;48.520;-1.330;2022-12-24T11:47:34;99968.97;;;12.32;100.00
48796;BME280;34607;48.520;-1.330;2022-12-24T11:50:27;99973.28;;;12.36;100.00
48796;BME280;34607;48.520;-1.330;2022-12-24T11:53:01;99966.34;;;12.29;100.00
48796;BME280;34607;48.520;-1.330;2022-12-24T11:55:39;99967.22;;;12.33;100.00
48796;BME280;34607;48.520;-1.330;2022-12-24T11:58:17;99950.75;;;12.25;100.00
48796;BME280;34607;48.520;-1.330;2022-12-24T12:00:46;99961.16;;;12.37;100.00
48796;BME280;34607;48.520;-1.330;2022-12-24T12:03:25;99946.44;;;12.22;100.00
48796;BME280;34607;48.520;-1.330;2022-12-24T12:05:55;99939.50;;;12.26;100.00
48796;BME280;34607;48.520;-1.330;2022-12-24T12:08:27;99961.16;;;12.32;100.00
48796;BME280;34607;48.520;-1.330;2022-12-24T12:10:57;99949.06;;;12.38;100.00
48796;BME280;34607;48.520;-1.330;2022-12-24T12:13:27;99945.59;;;12.40;100.00
48796;BME280;34607;48.520;-1.330;2022-12-24T12:16:05;99950.78;;;12.35;100.00
48796;BME280;34607;48.520;-1.330;2022-12-24T12:18:39;99941.25;;;12.31;100.00
48796;BME280;34607;48.520;-1.330;2022-12-24T12:21:13;99948.19;;;12.39;100.00
48796;BME280;34607;48.520;-1.330;2022-12-24T12:23:46;99940.38;;;12.28;100.00
48796;BME280;34607;48.520;-1.330;2022-12-24T12:26:18;99949.91;;;12.30;100.00
48796;BME280;34607;48.520;-1.330;2022-12-24T12:28:52;99944.72;;;12.33;100.00
48796;BME280;34607;48.520;-1.330;2022-12-24T12:31:24;99944.72;;;12.35;100.00
48796;BME280;34607;48.520;-1.330;2022-12-24T12:33:56;99942.97;;;12.37;100.00
48796;BME280;34607;48.520;-1.330;2022-12-24T12:36:31;99956.88;;;12.39;100.00
48796;BME280;34607;48.520;-1.330;2022-12-24T12:39:01;99946.44;;;12.34;100.00
48796;BME280;34607;48.520;-1.330;2022-12-24T12:41:47;99939.53;;;12.40;100.00
48796;BME280;34607;48.520;-1.330;2022-12-24T12:44:29;99949.94;;;12.49;100.00
48796;BME280;34607;48.520;-1.330;2022-12-24T12:47:15;99949.06;;;12.44;100.00
48796;BME280;34607;48.520;-1.330;2022-12-24T12:49:57;99951.69;;;12.41;100.00
48796;BME280;34607;48.520;-1.330;2022-12-24T12:52:41;99941.25;;;12.31;100.00
48796;BME280;34607;48.520;-1.330;2022-12-24T12:55:22;99944.72;;;12.29;100.00
48796;BME280;34607;48.520;-1.330;2022-12-24T12:57:57;99946.44;;;12.30;100.00
48796;BME280;34607;48.520;-1.330;2022-12-24T13:00:26;99945.59;;;12.31;100.00
48796;BME280;34607;48.520;-1.330;2022-12-24T13:03:32;99949.06;;;12.36;100.00
48796;BME280;34607;48.520;-1.330;2022-12-24T13:06:12;99942.13;;;12.35;100.00
48796;BME280;34607;48.520;-1.330;2022-12-24T13:12:11;99941.28;;;12.41;100.00
48796;BME280;34607;48.520;-1.330;2022-12-24T13:14:55;99941.28;;;12.38;100.00
48796;BME280;34607;48.520;-1.330;2022-12-24T13:17:47;99945.53;;;12.22;100.00
48796;BME280;34607;48.520;-1.330;2022-12-24T13:20:23;99919.56;;;12.14;100.00
48796;BME280;34607;48.520;-1.330;2022-12-24T13:22:57;99942.09;;;12.24;100.00
48796;BME280;34607;48.520;-1.330;2022-12-24T13:25:30;99945.56;;;12.26;100.00
48796;BME280;34607;48.520;-1.330;2022-12-24T13:31:26;99942.09;;;12.24;100.00
48796;BME280;34607;48.520;-1.330;2022-12-24T13:34:01;99917.00;;;12.17;100.00
48796;BME280;34607;48.520;-1.330;2022-12-24T13:37:00;99928.25;;;12.27;100.00
48796;BME280;34607;48.520;-1.330;2022-12-24T13:40:12;99918.72;;;12.21;100.00
48796;BME280;34607;48.520;-1.330;2022-12-24T13:42:46;99923.06;;;12.21;100.00
48796;BME280;34607;48.520;-1.330;2022-12-24T13:45:45;99918.72;;;12.20;100.00
48796;BME280;34607;48.520;-1.330;2022-12-24T13:48:28;99914.38;;;12.22;100.00
48796;BME280;34607;48.520;-1.330;2022-12-24T13:50:58;99917.88;;;12.24;100.00
48796;BME280;34607;48.520;-1.330;2022-12-24T13:53:29;99918.72;;;12.20;100.00
48796;BME280;34607;48.520;-1.330;2022-12-24T13:56:04;99915.19;;;11.99;100.00
48796;BME280;34607;48.520;-1.330;2022-12-24T13:58:34;99923.88;;;12.06;100.00
48796;BME280;34607;48.520;-1.330;2022-12-24T14:01:03;99910.91;;;12.07;100.00
48796;BME280;34607;48.520;-1.330;2022-12-24T14:03:34;99902.28;;;12.16;100.00
48796;BME280;34607;48.520;-1.330;2022-12-24T14:06:06;99899.66;;;12.14;100.00
48796;BME280;34607;48.520;-1.330;2022-12-24T14:08:38;99878.88;;;12.02;100.00
48796;BME280;34607;48.520;-1.330;2022-12-24T14:11:11;99911.81;;;12.20;100.00
48796;BME280;34607;48.520;-1.330;2022-12-24T14:16:47;99910.09;;;12.34;100.00
48796;BME280;34607;48.520;-1.330;2022-12-24T14:19:18;99908.38;;;12.29;100.00
48796;BME280;34607;48.520;-1.330;2022-12-24T14:21:51;99904.91;;;12.24;100.00
48796;BME280;34607;48.520;-1.330;2022-12-24T14:24:22;99913.56;;;12.29;100.00
48796;BME280;34607;48.520;-1.330;2022-12-24T14:26:53;99905.78;;;12.27;100.00
48796;BME280;34607;48.520;-1.330;2022-12-24T14:29:27;99900.56;;;12.27;100.00
48796;BME280;34607;48.520;-1.330;2022-12-24T14:31:56;99916.16;;;12.32;100.00
48796;BME280;34607;48.520;-1.330;2022-12-24T14:34:24;99908.34;;;12.23;100.00
48796;BME280;34607;48.520;-1.330;2022-12-24T14:36:53;99914.38;;;12.15;100.00
48796;BME280;34607;48.520;-1.330;2022-12-24T14:39:25;99910.91;;;12.10;100.00
48796;BME280;34607;48.520;-1.330;2022-12-24T14:42:24;99891.75;;;11.84;100.00
48796;BME280;34607;48.520;-1.330;2022-12-24T14:45:00;99921.19;;;11.90;100.00
48796;BME280;34607;48.520;-1.330;2022-12-24T14:47:36;99917.69;;;11.79;100.00
48796;BME280;34607;48.520;-1.330;2022-12-24T14:53:12;99910.78;;;11.79;100.00
48796;BME280;34607;48.520;-1.330;2022-12-24T14:55:45;99915.09;;;11.77;100.00
48796;BME280;34607;48.520;-1.330;2022-12-24T14:58:20;99924.56;;;11.71;100.00
48796;BME280;34607;48.520;-1.330;2022-12-24T15:00:50;99929.69;;;11.63;100.00
48796;BME280;34607;48.520;-1.330;2022-12-24T15:03:20;99934.06;;;11.66;100.00
48796;BME280;34607;48.520;-1.330;2022-12-24T15:05:50;99928.84;;;11.64;100.00
48796;BME280;34607;48.520;-1.330;2022-12-24T15:08:22;99927.97;;;11.59;100.00
48796;BME280;34607;48.520;-1.330;2022-12-24T15:10:52;99939.22;;;11.61;100.00
48796;BME280;34607;48.520;-1.330;2022-12-24T15:13:26;99933.16;;;11.59;100.00
48796;BME280;34607;48.520;-1.330;2022-12-24T15:15:56;99933.13;;;11.54;100.00
48796;BME280;34607;48.520;-1.330;2022-12-24T15:18:26;99935.63;;;11.40;100.00
48796;BME280;34607;48.520;-1.330;2022-12-24T15:20:56;99921.81;;;11.44;100.00
48796;BME280;34607;48.520;-1.330;2022-12-24T15:23:27;99918.31;;;11.39;100.00
48796;BME280;34607;48.520;-1.330;2022-12-24T15:26:22;99938.22;;;11.42;100.00
48796;BME280;34607;48.520;-1.330;2022-12-24T15:28:51;99942.47;;;11.32;100.00
48796;BME280;34607;48.520;-1.330;2022-12-24T15:31:20;99945.13;;;11.38;100.00
48796;BME280;34607;48.520;-1.330;2022-12-24T15:33:50;99937.34;;;11.38;100.00
48796;BME280;34607;48.520;-1.330;2022-12-24T15:36:25;99934.72;;;11.32;100.00
48796;BME280;34607;48.520;-1.330;2022-12-24T15:38:54;99936.44;;;11.33;100.00
48796;BME280;34607;48.520;-1.330;2022-12-24T15:41:24;99939.94;;;11.38;100.00
48796;BME280;34607;48.520;-1.330;2022-12-24T15:43:59;99932.13;;;11.32;100.00
48796;BME280;34607;48.520;-1.330;2022-12-24T15:46:28;99933.81;;;11.29;100.00
48796;BME280;34607;48.520;-1.330;2022-12-24T15:48:57;99935.59;;;11.31;100.00
48796;BME280;34607;48.520;-1.330;2022-12-24T15:51:29;99936.47;;;11.35;100.00
48796;BME280;34607;48.520;-1.330;2022-12-24T15:53:58;99944.25;;;11.35;100.00
48796;BME280;34607;48.520;-1.330;2022-12-24T15:56:33;99954.63;;;11.39;100.00
48796;BME280;34607;48.520;-1.330;2022-12-24T15:59:29;99948.56;;;11.33;100.00
48796;BME280;34607;48.520;-1.330;2022-12-24T16:02:25;99943.34;;;11.28;100.00
48796;BME280;34607;48.520;-1.330;2022-12-24T16:04:53;99955.41;;;11.29;100.00
48796;BME280;34607;48.520;-1.330;2022-12-24T16:07:24;99947.63;;;11.29;100.00
48796;BME280;34607;48.520;-1.330;2022-12-24T16:10:23;99926.00;;;11.19;100.00
48796;BME280;34607;48.520;-1.330;2022-12-24T16:12:50;99939.84;;;11.23;100.00
48796;BME280;34607;48.520;-1.330;2022-12-24T16:15:19;99942.44;;;11.24;100.00
48796;BME280;34607;48.520;-1.330;2022-12-24T16:17:47;99891.31;;;11.03;100.00
48796;BME280;34607;48.520;-1.330;2022-12-24T16:20:19;99931.19;;;11.21;100.00
48796;BME280;34607;48.520;-1.330;2022-12-24T16:22:47;99947.59;;;11.20;100.00
48796;BME280;34607;48.520;-1.330;2022-12-24T16:25:22;99929.41;;;11.11;100.00
48796;BME280;34607;48.520;-1.330;2022-12-24T16:27:50;99947.53;;;11.14;100.00
48796;BME280;34607;48.520;-1.330;2022-12-24T16:30:19;99957.09;;;11.19;100.00
48796;BME280;34607;48.520;-1.330;2022-12-24T16:32:47;99958.81;;;11.16;100.00
48796;BME280;34607;48.520;-1.330;2022-12-24T16:35:21;99960.47;;;11.14;100.00
48796;BME280;34607;48.520;-1.330;2022-12-24T16:37:50;99953.56;;;11.11;100.00
48796;BME280;34607;48.520;-1.330;2022-12-24T16:40:17;99957.91;;;11.11;100.00
48796;BME280;34607;48.520;-1.330;2022-12-24T16:42:44;99953.56;;;11.10;100.00
48796;BME280;34607;48.520;-1.330;2022-12-24T16:45:30;99952.50;;;10.87;100.00
48796;BME280;34607;48.520;-1.330;2022-12-24T16:47:58;99935.25;;;10.85;100.00
48796;BME280;34607;48.520;-1.330;2022-12-24T16:50:25;99943.13;;;10.99;100.00
48796;BME280;34607;48.520;-1.330;2022-12-24T16:52:52;99938.75;;;10.96;100.00
48796;BME280;34607;48.520;-1.330;2022-12-24T16:55:19;99929.28;;;10.98;100.00
48796;BME280;34607;48.520;-1.330;2022-12-24T16:57:47;99927.53;;;10.96;100.00
48796;BME280;34607;48.520;-1.330;2022-12-24T17:00:16;99923.19;;;10.89;100.00
48796;BME280;34607;48.520;-1.330;2022-12-24T17:02:47;99925.75;;;10.87;100.00
48796;BME280;34607;48.520;-1.330;2022-12-24T17:05:14;99924.03;;;10.87;100.00
48796;BME280;34607;48.520;-1.330;2022-12-24T17:07:41;99933.53;;;10.89;100.00
48796;BME280;34607;48.520;-1.330;2022-12-24T17:10:09;99935.22;;;10.83;100.00
48796;BME280;34607;48.520;-1.330;2022-12-24T17:12:37;99933.50;;;10.85;100.00
48796;BME280;34607;48.520;-1.330;2022-12-24T17:15:04;99930.06;;;10.85;100.00
48796;BME280;34607;48.520;-1.330;2022-12-24T17:17:32;99932.63;;;10.82;100.00
48796;BME280;34607;48.520;-1.330;2022-12-24T17:20:01;99936.94;;;10.86;100.00
48796;BME280;34607;48.520;-1.330;2022-12-24T17:22:29;99939.53;;;10.86;100.00
48796;BME280;34607;48.520;-1.330;2022-12-24T17:24:56;99939.53;;;10.81;100.00
48796;BME280;34607;48.520;-1.330;2022-12-24T17:27:24;99939.53;;;10.86;100.00
48796;BME280;34607;48.520;-1.330;2022-12-24T17:29:51;99948.19;;;10.88;100.00
48796;BME280;34607;48.520;-1.330;2022-12-24T17:32:18;99942.16;;;10.89;100.00
48796;BME280;34607;48.520;-1.330;2022-12-24T17:34:45;99946.47;;;10.87;100.00
48796;BME280;34607;48.520;-1.330;2022-12-24T17:37:14;99951.63;;;10.84;100.00
48796;BME280;34607;48.520;-1.330;2022-12-24T17:39:41;99944.72;;;10.86;100.00
48796;BME280;34607;48.520;-1.330;2022-12-24T17:42:08;99941.25;;;10.84;100.00
48796;BME280;34607;48.520;-1.330;2022-12-24T17:44:35;99938.66;;;10.84;100.00
48796;BME280;34607;48.520;-1.330;2022-12-24T17:47:03;99949.91;;;10.87;100.00
48796;BME280;34607;48.520;-1.330;2022-12-24T17:49:30;99944.75;;;10.89;100.00
48796;BME280;34607;48.520;-1.330;2022-12-24T17:51:58;99943.81;;;10.81;100.00
48796;BME280;34607;48.520;-1.330;2022-12-24T17:54:26;99940.41;;;10.83;100.00
48796;BME280;34607;48.520;-1.330;2022-12-24T17:56:53;99936.88;;;10.77;100.00
48796;BME280;34607;48.520;-1.330;2022-12-24T17:59:21;99933.47;;;10.81;100.00
48796;BME280;34607;48.520;-1.330;2022-12-24T18:01:48;99922.19;;;10.74;100.00
48796;BME280;34607;48.520;-1.330;2022-12-24T18:04:15;99899.63;;;10.61;100.00
48796;BME280;34607;48.520;-1.330;2022-12-24T18:06:43;99928.25;;;10.79;100.00
48796;BME280;34607;48.520;-1.330;2022-12-24T18:09:10;99928.31;;;10.84;100.00
48796;BME280;34607;48.520;-1.330;2022-12-24T18:11:38;99930.91;;;10.84;100.00
48796;BME280;34607;48.520;-1.330;2022-12-24T18:14:05;99938.66;;;10.84;100.00
48796;BME280;34607;48.520;-1.330;2022-12-24T18:16:35;99938.63;;;10.81;100.00
48796;BME280;34607;48.520;-1.330;2022-12-24T18:19:07;99936.03;;;10.81;100.00
48796;BME280;34607;48.520;-1.330;2022-12-24T18:21:34;99943.84;;;10.84;100.00
48796;BME280;34607;48.520;-1.330;2022-12-24T18:24:02;99938.63;;;10.79;100.00
48796;BME280;34607;48.520;-1.330;2022-12-24T18:26:30;99954.22;;;10.84;100.00
48796;BME280;34607;48.520;-1.330;2022-12-24T18:29:00;99955.97;;;10.85;100.00
48796;BME280;34607;48.520;-1.330;2022-12-24T18:31:29;99951.63;;;10.85;100.00
48796;BME280;34607;48.520;-1.330;2022-12-24T18:33:59;99949.00;;;10.81;100.00
48796;BME280;34607;48.520;-1.330;2022-12-24T18:36:26;99957.66;;;10.84;100.00
48796;BME280;34607;48.520;-1.330;2022-12-24T18:38:54;99945.56;;;10.82;100.00
48796;BME280;34607;48.520;-1.330;2022-12-24T18:41:22;99947.28;;;10.83;100.00
48796;BME280;34607;48.520;-1.330;2022-12-24T18:43:51;99940.34;;;10.79;100.00
48796;BME280;34607;48.520;-1.330;2022-12-24T18:46:21;99936.91;;;10.80;100.00
48796;BME280;34607;48.520;-1.330;2022-12-24T18:48:49;99938.59;;;10.73;100.00
48796;BME280;34607;48.520;-1.330;2022-12-24T18:51:18;99937.69;;;10.73;100.00
48796;BME280;34607;48.520;-1.330;2022-12-24T18:53:46;99929.94;;;10.70;100.00
48796;BME280;34607;48.520;-1.330;2022-12-24T18:56:15;99933.41;;;10.75;100.00
48796;BME280;34607;48.520;-1.330;2022-12-24T18:58:43;99929.94;;;10.73;100.00
48796;BME280;34607;48.520;-1.330;2022-12-24T19:01:11;99917.84;;;10.70;100.00
48796;BME280;34607;48.520;-1.330;2022-12-24T19:03:40;99911.81;;;10.74;100.00
48796;BME280;34607;48.520;-1.330;2022-12-24T19:06:08;99914.41;;;10.74;100.00
48796;BME280;34607;48.520;-1.330;2022-12-24T19:08:36;99916.13;;;10.72;100.00
48796;BME280;34607;48.520;-1.330;2022-12-24T19:11:04;99912.66;;;10.70;100.00
48796;BME280;34607;48.520;-1.330;2022-12-24T19:13:31;99907.47;;;10.68;100.00
48796;BME280;34607;48.520;-1.330;2022-12-24T19:15:59;99907.47;;;10.68;100.00
48796;BME280;34607;48.520;-1.330;2022-12-24T19:18:26;99903.13;;;10.66;100.00
48796;BME280;34607;48.520;-1.330;2022-12-24T19:20:54;99886.69;;;10.59;100.00
48796;BME280;34607;48.520;-1.330;2022-12-24T19:23:21;99900.53;;;10.64;100.00
48796;BME280;34607;48.520;-1.330;2022-12-24T19:25:49;99887.50;;;10.57;100.00
48796;BME280;34607;48.520;-1.330;2022-12-24T19:28:16;99905.69;;;10.61;100.00
48796;BME280;34607;48.520;-1.330;2022-12-24T19:30:43;99903.91;;;10.56;100.00
48796;BME280;34607;48.520;-1.330;2022-12-24T19:33:10;99910.78;;;10.55;100.00
48796;BME280;34607;48.520;-1.330;2022-12-24T19:35:37;99900.41;;;10.49;100.00
48796;BME280;34607;48.520;-1.330;2022-12-24T19:38:06;99898.66;;;10.48;100.00
48796;BME280;34607;48.520;-1.330;2022-12-24T19:40:34;99890.84;;;10.45;100.00
48796;BME280;34607;48.520;-1.330;2022-12-24T19:43:02;99876.13;;;10.39;100.00
48796;BME280;34607;48.520;-1.330;2022-12-24T19:45:29;99890.84;;;10.42;100.00
48796;BME280;34607;48.520;-1.330;2022-12-24T19:47:56;99885.66;;;10.45;100.00
48796;BME280;34607;48.520;-1.330;2022-12-24T19:50:23;99883.97;;;10.48;100.00
48796;BME280;34607;48.520;-1.330;2022-12-24T19:52:50;99882.31;;;10.52;100.00
48796;BME280;34607;48.520;-1.330;2022-12-24T19:55:19;99876.25;;;10.53;100.00
48796;BME280;34607;48.520;-1.330;2022-12-24T19:57:46;99880.53;;;10.49;100.00
48796;BME280;34607;48.520;-1.330;2022-12-24T20:00:14;99884.00;;;10.52;100.00
48796;BME280;34607;48.520;-1.330;2022-12-24T20:02:41;99883.16;;;10.51;100.00
48796;BME280;34607;48.520;-1.330;2022-12-24T20:05:08;99894.34;;;10.52;100.00
48796;BME280;34607;48.520;-1.330;2022-12-24T20:07:35;99898.69;;;10.51;100.00
48796;BME280;34607;48.520;-1.330;2022-12-24T20:10:03;99888.25;;;10.45;100.00
48796;BME280;34607;48.520;-1.330;2022-12-24T20:12:31;99887.38;;;10.43;100.00
48796;BME280;34607;48.520;-1.330;2022-12-24T20:14:59;99884.81;;;10.46;100.00
48796;BME280;34607;48.520;-1.330;2022-12-24T20:17:26;99890.91;;;10.49;100.00
48796;BME280;34607;48.520;-1.330;2022-12-24T20:19:53;99889.16;;;10.47;100.00
48796;BME280;34607;48.520;-1.330;2022-12-24T20:22:20;99893.50;;;10.51;100.00
48796;BME280;34607;48.520;-1.330;2022-12-24T20:24:47;99897.81;;;10.51;100.00
48796;BME280;34607;48.520;-1.330;2022-12-24T20:27:14;99901.28;;;10.53;100.00
48796;BME280;34607;48.520;-1.330;2022-12-24T20:29:44;99897.84;;;10.57;100.00
48796;BME280;34607;48.520;-1.330;2022-12-24T20:32:14;99910.84;;;10.61;100.00
48796;BME280;34607;48.520;-1.330;2022-12-24T20:34:41;99888.34;;;10.53;100.00
48796;BME280;34607;48.520;-1.330;2022-12-24T20:37:08;99909.09;;;10.60;100.00
48796;BME280;34607;48.520;-1.330;2022-12-24T20:39:35;99908.28;;;10.61;100.00
48796;BME280;34607;48.520;-1.330;2022-12-24T20:42:03;99898.78;;;10.63;100.00
48796;BME280;34607;48.520;-1.330;2022-12-24T20:44:30;99899.66;;;10.65;100.00
48796;BME280;34607;48.520;-1.330;2022-12-24T20:46:58;99891.91;;;10.65;100.00
48796;BME280;34607;48.520;-1.330;2022-12-24T20:49:25;99887.59;;;10.66;100.00
48796;BME280;34607;48.520;-1.330;2022-12-24T20:51:52;99878.06;;;10.63;100.00
48796;BME280;34607;48.520;-1.330;2022-12-24T20:54:20;99898.81;;;10.66;100.00
48796;BME280;34607;48.520;-1.330;2022-12-24T20:56:47;99899.69;;;10.67;100.00
48796;BME280;34607;48.520;-1.330;2022-12-24T20:59:14;99897.94;;;10.67;100.00
48796;BME280;34607;48.520;-1.330;2022-12-24T21:01:41;99899.69;;;10.68;100.00